createdAt,value
2022-09-06T00:00:19.682Z,15.05
2022-09-06T00:00:50.239Z,15.04
2022-09-06T00:01:20.807Z,15.05
2022-09-06T00:01:51.373Z,15.05
2022-09-06T00:02:22.006Z,15.04
2022-09-06T00:02:52.669Z,15.04
2022-09-06T00:03:23.224Z,15.05
2022-09-06T00:03:53.939Z,15.05
2022-09-06T00:04:24.645Z,15.05
2022-09-06T00:04:55.194Z,15.07
2022-09-06T00:05:25.758Z,15.07
2022-09-06T00:05:56.311Z,15.07
2022-09-06T00:06:26.848Z,15.07
2022-09-06T00:06:57.421Z,15.07
2022-09-06T00:07:27.981Z,15.09
2022-09-06T00:07:58.556Z,15.07
2022-09-06T00:08:29.135Z,15.07
2022-09-06T00:08:59.667Z,15.04
2022-09-06T00:09:30.229Z,15.04
2022-09-06T00:10:00.787Z,15.04
2022-09-06T00:10:31.328Z,15.04
2022-09-06T00:11:01.907Z,15.03
2022-09-06T00:11:32.538Z,15.01
2022-09-06T00:12:03.060Z,14.97
2022-09-06T00:12:33.634Z,14.97
2022-09-06T00:13:04.184Z,14.97
2022-09-06T00:13:34.741Z,14.97
2022-09-06T00:14:05.309Z,14.95
2022-09-06T00:14:35.890Z,14.94
2022-09-06T00:15:06.435Z,14.95
2022-09-06T00:15:37.080Z,14.95
2022-09-06T00:16:07.780Z,14.95
2022-09-06T00:16:38.406Z,14.93
2022-09-06T00:17:08.975Z,14.93
2022-09-06T00:17:39.540Z,14.93
2022-09-06T00:18:10.143Z,14.91
2022-09-06T00:18:40.722Z,14.91
2022-09-06T00:19:11.258Z,14.93
2022-09-06T00:19:41.809Z,14.91
2022-09-06T00:20:12.398Z,14.93
2022-09-06T00:20:42.962Z,14.93
2022-09-06T00:21:13.532Z,14.91
2022-09-06T00:21:44.119Z,14.93
2022-09-06T00:22:14.674Z,14.91
2022-09-06T00:22:45.231Z,14.93
2022-09-06T00:23:15.807Z,14.87
2022-09-06T00:23:46.385Z,14.91
2022-09-06T00:24:16.972Z,14.90
2022-09-06T00:24:47.548Z,14.90
2022-09-06T00:25:18.094Z,14.90
2022-09-06T00:25:48.647Z,14.90
2022-09-06T00:26:19.171Z,14.87
2022-09-06T00:26:49.739Z,14.87
2022-09-06T00:27:20.319Z,14.87
2022-09-06T00:27:50.890Z,14.90
2022-09-06T00:28:21.493Z,14.86
2022-09-06T00:28:52.072Z,14.87
2022-09-06T00:29:22.630Z,14.87
2022-09-06T00:29:53.216Z,14.87
2022-09-06T00:30:23.779Z,14.87
2022-09-06T00:30:54.419Z,14.87
2022-09-06T00:31:24.995Z,14.87
2022-09-06T00:31:55.642Z,14.87
2022-09-06T00:32:26.229Z,14.90
2022-09-06T00:32:56.789Z,14.87
2022-09-06T00:33:27.370Z,14.90
2022-09-06T00:33:57.939Z,14.87
2022-09-06T00:34:28.512Z,14.87
2022-09-06T00:34:59.072Z,14.87
2022-09-06T00:35:29.647Z,14.91
2022-09-06T00:36:00.217Z,14.91
2022-09-06T00:36:30.775Z,14.91
2022-09-06T00:37:01.321Z,14.90
2022-09-06T00:37:31.900Z,14.93
2022-09-06T00:38:02.488Z,14.90
2022-09-06T00:38:33.064Z,14.90
2022-09-06T00:39:03.649Z,14.90
2022-09-06T00:39:34.262Z,14.87
2022-09-06T00:40:04.905Z,14.90
2022-09-06T00:40:35.511Z,14.87
2022-09-06T00:41:06.072Z,14.87
2022-09-06T00:41:36.644Z,14.87
2022-09-06T00:42:07.221Z,14.87
2022-09-06T00:42:37.783Z,14.90
2022-09-06T00:43:08.375Z,14.86
2022-09-06T00:43:38.917Z,14.90
2022-09-06T00:44:09.476Z,14.87
2022-09-06T00:44:40.035Z,14.85
2022-09-06T00:45:10.615Z,14.86
2022-09-06T00:45:41.196Z,14.86
2022-09-06T00:46:11.800Z,14.85
2022-09-06T00:46:42.413Z,14.85
2022-09-06T00:47:12.977Z,14.85
2022-09-06T00:47:43.510Z,14.85
2022-09-06T00:48:14.104Z,14.85
2022-09-06T00:48:44.655Z,14.85
2022-09-06T00:49:15.224Z,14.83
2022-09-06T00:49:45.793Z,14.83
2022-09-06T00:50:16.381Z,14.82
2022-09-06T00:50:46.927Z,14.80
2022-09-06T00:51:17.516Z,14.78
2022-09-06T00:51:48.078Z,14.78
2022-09-06T00:52:18.626Z,14.79
2022-09-06T00:52:49.206Z,14.78
2022-09-06T00:53:19.794Z,14.79
2022-09-06T00:53:50.358Z,14.75
2022-09-06T00:54:20.903Z,14.75
2022-09-06T00:54:51.460Z,14.75
2022-09-06T00:55:22.033Z,14.75
2022-09-06T00:55:52.584Z,14.74
2022-09-06T00:56:23.163Z,14.72
2022-09-06T00:56:53.697Z,14.75
2022-09-06T00:57:24.264Z,14.74
2022-09-06T00:57:54.841Z,14.75
2022-09-06T00:58:25.494Z,14.72
2022-09-06T00:58:56.111Z,14.71
2022-09-06T00:59:26.686Z,14.69
2022-09-06T00:59:57.251Z,14.67
2022-09-06T01:00:27.801Z,14.66
2022-09-06T01:00:58.362Z,14.66
2022-09-06T01:01:29.087Z,14.64
2022-09-06T01:01:59.872Z,14.63
2022-09-06T01:02:30.644Z,14.64
2022-09-06T01:03:01.262Z,14.63
2022-09-06T01:03:31.837Z,14.63
2022-09-06T01:04:02.419Z,14.61
2022-09-06T01:04:32.997Z,14.61
2022-09-06T01:05:03.537Z,14.60
2022-09-06T01:05:34.105Z,14.60
2022-09-06T01:06:04.665Z,14.60
2022-09-06T01:06:35.242Z,14.59
2022-09-06T01:07:05.804Z,14.61
2022-09-06T01:07:36.371Z,14.60
2022-09-06T01:08:06.892Z,14.60
2022-09-06T01:08:37.468Z,14.59
2022-09-06T01:09:08.025Z,14.57
2022-09-06T01:09:38.619Z,14.59
2022-09-06T01:10:09.158Z,14.57
2022-09-06T01:10:39.730Z,14.56
2022-09-06T01:11:10.290Z,14.56
2022-09-06T01:11:40.853Z,14.56
2022-09-06T01:12:11.428Z,14.53
2022-09-06T01:12:41.994Z,14.52
2022-09-06T01:13:12.547Z,14.49
2022-09-06T01:13:43.137Z,14.52
2022-09-06T01:14:13.709Z,14.49
2022-09-06T01:14:44.242Z,14.49
2022-09-06T01:15:14.824Z,14.46
2022-09-06T01:15:45.390Z,14.48
2022-09-06T01:16:16.045Z,14.48
2022-09-06T01:16:46.619Z,14.48
2022-09-06T01:17:17.190Z,14.48
2022-09-06T01:17:47.755Z,14.46
2022-09-06T01:18:18.318Z,14.48
2022-09-06T01:18:48.886Z,14.46
2022-09-06T01:19:19.449Z,14.45
2022-09-06T01:19:49.999Z,14.46
2022-09-06T01:20:20.573Z,14.45
2022-09-06T01:20:51.157Z,14.48
2022-09-06T01:21:21.696Z,14.46
2022-09-06T01:21:52.282Z,14.45
2022-09-06T01:22:22.836Z,14.44
2022-09-06T01:22:53.403Z,14.45
2022-09-06T01:23:23.972Z,14.44
2022-09-06T01:23:54.528Z,14.44
2022-09-06T01:24:25.085Z,14.41
2022-09-06T01:24:55.630Z,14.41
2022-09-06T01:25:26.184Z,14.38
2022-09-06T01:25:56.776Z,14.38
2022-09-06T01:26:27.352Z,14.38
2022-09-06T01:26:57.935Z,14.36
2022-09-06T01:27:28.509Z,14.36
2022-09-06T01:27:59.066Z,14.36
2022-09-06T01:28:29.624Z,14.35
2022-09-06T01:29:00.191Z,14.35
2022-09-06T01:29:30.749Z,14.34
2022-09-06T01:30:01.336Z,14.35
2022-09-06T01:30:31.909Z,14.35
2022-09-06T01:31:02.546Z,14.34
2022-09-06T01:31:33.118Z,14.30
2022-09-06T01:32:03.675Z,14.31
2022-09-06T01:32:34.234Z,14.31
2022-09-06T01:33:04.798Z,14.29
2022-09-06T01:33:35.365Z,14.29
2022-09-06T01:34:05.945Z,14.27
2022-09-06T01:34:36.483Z,14.29
2022-09-06T01:35:07.071Z,14.27
2022-09-06T01:35:37.619Z,14.27
2022-09-06T01:36:08.195Z,14.29
2022-09-06T01:36:49.662Z,14.27
2022-09-06T01:37:10.752Z,14.26
2022-09-06T01:37:40.566Z,14.26
2022-09-06T01:38:11.101Z,14.27
2022-09-06T01:38:41.666Z,14.27
2022-09-06T01:39:12.214Z,14.27
2022-09-06T01:39:42.859Z,14.27
2022-09-06T01:40:13.476Z,14.27
2022-09-06T01:40:44.063Z,14.27
2022-09-06T01:41:14.632Z,14.27
2022-09-06T01:41:45.205Z,14.26
2022-09-06T01:42:15.770Z,14.26
2022-09-06T01:42:46.338Z,14.26
2022-09-06T01:43:16.920Z,14.26
2022-09-06T01:43:47.467Z,14.26
2022-09-06T01:44:18.046Z,14.24
2022-09-06T01:44:48.611Z,14.24
2022-09-06T01:45:19.158Z,14.24
2022-09-06T01:45:49.783Z,14.23
2022-09-06T01:46:20.587Z,14.21
2022-09-06T01:46:51.158Z,14.20
2022-09-06T01:47:21.718Z,14.21
2022-09-06T01:47:52.289Z,14.20
2022-09-06T01:48:22.940Z,14.20
2022-09-06T01:48:53.485Z,14.21
2022-09-06T01:49:24.054Z,14.21
2022-09-06T01:49:54.618Z,14.20
2022-09-06T01:50:25.193Z,14.19
2022-09-06T01:50:55.737Z,14.19
2022-09-06T01:51:26.319Z,14.20
2022-09-06T01:51:56.899Z,14.19
2022-09-06T01:52:27.464Z,14.19
2022-09-06T01:52:58.020Z,14.19
2022-09-06T01:53:28.600Z,14.19
2022-09-06T01:53:59.146Z,14.16
2022-09-06T01:54:29.709Z,14.13
2022-09-06T01:55:00.268Z,14.12
2022-09-06T01:55:30.819Z,14.12
2022-09-06T01:56:01.393Z,14.11
2022-09-06T01:56:31.964Z,14.08
2022-09-06T01:57:02.567Z,14.09
2022-09-06T01:57:33.126Z,14.08
2022-09-06T01:58:03.685Z,14.08
2022-09-06T01:58:34.255Z,14.08
2022-09-06T01:59:04.831Z,14.08
2022-09-06T01:59:35.404Z,14.08
2022-09-06T02:00:05.970Z,14.06
2022-09-06T02:00:36.543Z,14.08
2022-09-06T02:01:07.179Z,14.06
2022-09-06T02:01:37.781Z,14.06
2022-09-06T02:02:08.368Z,14.05
2022-09-06T02:02:39.036Z,14.05
2022-09-06T02:03:09.597Z,14.04
2022-09-06T02:03:40.179Z,14.04
2022-09-06T02:04:10.746Z,14.02
2022-09-06T02:04:41.301Z,14.02
2022-09-06T02:05:11.867Z,14.02
2022-09-06T02:05:42.478Z,14.02
2022-09-06T02:06:13.033Z,14.02
2022-09-06T02:06:43.591Z,14.02
2022-09-06T02:07:14.125Z,14.02
2022-09-06T02:07:44.715Z,14.01
2022-09-06T02:08:15.297Z,14.01
2022-09-06T02:08:45.872Z,14.01
2022-09-06T02:09:16.418Z,14.01
2022-09-06T02:09:46.975Z,14.01
2022-09-06T02:10:17.527Z,14.01
2022-09-06T02:10:48.120Z,14.01
2022-09-06T02:11:18.679Z,13.99
2022-09-06T02:11:49.244Z,14.01
2022-09-06T02:12:19.823Z,13.99
2022-09-06T02:12:50.368Z,14.01
2022-09-06T02:13:20.929Z,14.01
2022-09-06T02:13:51.485Z,13.98
2022-09-06T02:14:22.059Z,13.96
2022-09-06T02:14:52.632Z,13.93
2022-09-06T02:15:23.163Z,13.93
2022-09-06T02:15:53.766Z,13.93
2022-09-06T02:16:24.450Z,13.90
2022-09-06T02:16:55.102Z,13.90
2022-09-06T02:17:25.714Z,13.90
2022-09-06T02:17:56.307Z,13.88
2022-09-06T02:18:26.977Z,13.90
2022-09-06T02:18:57.568Z,13.90
2022-09-06T02:19:28.153Z,13.88
2022-09-06T02:19:58.691Z,13.87
2022-09-06T02:20:29.256Z,13.88
2022-09-06T02:20:59.820Z,13.87
2022-09-06T02:21:30.399Z,13.86
2022-09-06T02:22:00.955Z,13.86
2022-09-06T02:22:31.520Z,13.86
2022-09-06T02:23:02.084Z,13.86
2022-09-06T02:23:32.670Z,13.86
2022-09-06T02:24:03.224Z,13.84
2022-09-06T02:24:33.808Z,13.86
2022-09-06T02:25:04.349Z,13.86
2022-09-06T02:25:34.923Z,13.84
2022-09-06T02:26:05.469Z,13.86
2022-09-06T02:26:36.017Z,13.84
2022-09-06T02:27:06.579Z,13.87
2022-09-06T02:27:37.119Z,13.87
2022-09-06T02:28:07.689Z,13.86
2022-09-06T02:28:38.289Z,13.86
2022-09-06T02:29:08.863Z,13.87
2022-09-06T02:29:39.403Z,13.87
2022-09-06T02:30:09.964Z,13.87
2022-09-06T02:30:40.615Z,13.87
2022-09-06T02:31:11.287Z,13.86
2022-09-06T02:31:41.833Z,13.87
2022-09-06T02:32:12.391Z,13.87
2022-09-06T02:32:42.981Z,13.88
2022-09-06T02:33:13.566Z,13.87
2022-09-06T02:33:44.124Z,13.87
2022-09-06T02:34:14.681Z,13.86
2022-09-06T02:34:45.232Z,13.84
2022-09-06T02:35:15.817Z,13.84
2022-09-06T02:35:46.381Z,13.86
2022-09-06T02:36:16.926Z,13.86
2022-09-06T02:36:47.535Z,13.83
2022-09-06T02:37:18.078Z,13.84
2022-09-06T02:37:48.642Z,13.87
2022-09-06T02:38:19.208Z,13.87
2022-09-06T02:38:49.773Z,13.86
2022-09-06T02:39:20.351Z,13.84
2022-09-06T02:39:50.994Z,13.86
2022-09-06T02:40:21.591Z,13.84
2022-09-06T02:40:52.125Z,13.84
2022-09-06T02:41:22.690Z,13.84
2022-09-06T02:41:53.262Z,13.83
2022-09-06T02:42:23.836Z,13.84
2022-09-06T02:42:54.400Z,13.83
2022-09-06T02:43:25.020Z,13.83
2022-09-06T02:43:55.625Z,13.80
2022-09-06T02:44:26.195Z,13.80
2022-09-06T02:44:56.767Z,13.79
2022-09-06T02:45:27.332Z,13.76
2022-09-06T02:45:57.963Z,13.75
2022-09-06T02:46:28.571Z,13.75
2022-09-06T02:46:59.121Z,13.73
2022-09-06T02:47:29.656Z,13.73
2022-09-06T02:48:00.217Z,13.73
2022-09-06T02:48:30.769Z,13.72
2022-09-06T02:49:01.374Z,13.72
2022-09-06T02:49:31.972Z,13.72
2022-09-06T02:50:02.561Z,13.72
2022-09-06T02:50:33.151Z,13.72
2022-09-06T02:51:03.712Z,13.73
2022-09-06T02:51:34.292Z,13.72
2022-09-06T02:52:04.857Z,13.71
2022-09-06T02:52:35.407Z,13.72
2022-09-06T02:53:05.985Z,13.71
2022-09-06T02:53:36.561Z,13.71
2022-09-06T02:54:07.143Z,13.69
2022-09-06T02:54:37.698Z,13.69
2022-09-06T02:55:08.282Z,13.71
2022-09-06T02:55:38.850Z,13.69
2022-09-06T02:56:09.394Z,13.69
2022-09-06T02:56:39.947Z,13.69
2022-09-06T02:57:10.492Z,13.68
2022-09-06T02:57:41.063Z,13.68
2022-09-06T02:58:11.603Z,13.68
2022-09-06T02:58:42.191Z,13.65
2022-09-06T02:59:12.756Z,13.65
2022-09-06T02:59:43.310Z,13.66
2022-09-06T03:00:13.875Z,13.65
2022-09-06T03:00:44.444Z,13.63
2022-09-06T03:01:15.069Z,13.65
2022-09-06T03:01:45.708Z,13.63
2022-09-06T03:02:16.327Z,13.65
2022-09-06T03:02:47.046Z,13.63
2022-09-06T03:03:17.638Z,13.63
2022-09-06T03:03:48.193Z,13.63
2022-09-06T03:04:18.732Z,13.63
2022-09-06T03:04:49.331Z,13.63
2022-09-06T03:05:19.870Z,13.65
2022-09-06T03:05:50.420Z,13.63
2022-09-06T03:06:20.995Z,13.62
2022-09-06T03:06:51.548Z,13.62
2022-09-06T03:07:22.106Z,13.62
2022-09-06T03:07:52.679Z,13.62
2022-09-06T03:08:23.394Z,13.61
2022-09-06T03:08:53.981Z,13.62
2022-09-06T03:09:24.548Z,13.59
2022-09-06T03:09:55.135Z,13.61
2022-09-06T03:10:25.708Z,13.61
2022-09-06T03:10:56.292Z,13.62
2022-09-06T03:11:26.773Z,13.62
2022-09-06T03:11:57.787Z,13.63
2022-09-06T03:12:28.314Z,13.63
2022-09-06T03:12:59.400Z,13.62
2022-09-06T03:13:29.974Z,13.61
2022-09-06T03:14:00.552Z,13.61
2022-09-06T03:14:31.124Z,13.62
2022-09-06T03:15:01.706Z,13.62
2022-09-06T03:15:32.297Z,13.63
2022-09-06T03:16:02.900Z,13.61
2022-09-06T03:16:33.511Z,13.59
2022-09-06T03:17:04.189Z,13.61
2022-09-06T03:17:34.814Z,13.61
2022-09-06T03:18:05.373Z,13.61
2022-09-06T03:18:35.964Z,13.62
2022-09-06T03:19:06.512Z,13.61
2022-09-06T03:19:37.090Z,13.61
2022-09-06T03:20:07.663Z,13.61
2022-09-06T03:20:38.251Z,13.61
2022-09-06T03:21:08.848Z,13.62
2022-09-06T03:21:39.403Z,13.62
2022-09-06T03:22:09.959Z,13.62
2022-09-06T03:22:40.523Z,13.62
2022-09-06T03:23:11.122Z,13.61
2022-09-06T03:23:41.694Z,13.59
2022-09-06T03:24:12.222Z,13.59
2022-09-06T03:24:42.797Z,13.59
2022-09-06T03:25:13.375Z,13.57
2022-09-06T03:25:43.945Z,13.59
2022-09-06T03:26:14.554Z,13.59
2022-09-06T03:26:45.128Z,13.57
2022-09-06T03:27:15.687Z,13.57
2022-09-06T03:27:46.264Z,13.59
2022-09-06T03:28:16.838Z,13.59
2022-09-06T03:28:47.382Z,13.57
2022-09-06T03:29:17.982Z,13.57
2022-09-06T03:29:48.533Z,13.55
2022-09-06T03:30:19.111Z,13.57
2022-09-06T03:30:49.713Z,13.54
2022-09-06T03:31:20.455Z,13.54
2022-09-06T03:31:51.053Z,13.53
2022-09-06T03:32:21.626Z,13.53
2022-09-06T03:32:52.214Z,13.53
2022-09-06T03:33:22.793Z,13.53
2022-09-06T03:33:53.347Z,13.50
2022-09-06T03:34:23.898Z,13.51
2022-09-06T03:34:54.468Z,13.53
2022-09-06T03:35:25.010Z,13.53
2022-09-06T03:35:55.571Z,13.53
2022-09-06T03:36:26.157Z,13.53
2022-09-06T03:36:56.711Z,13.54
2022-09-06T03:37:27.291Z,13.53
2022-09-06T03:37:57.860Z,13.54
2022-09-06T03:38:28.600Z,13.55
2022-09-06T03:38:59.166Z,13.55
2022-09-06T03:39:29.793Z,13.53
2022-09-06T03:40:00.512Z,13.53
2022-09-06T03:40:31.127Z,13.53
2022-09-06T03:41:01.691Z,13.53
2022-09-06T03:41:32.269Z,13.51
2022-09-06T03:42:02.830Z,13.51
2022-09-06T03:42:33.371Z,13.50
2022-09-06T03:43:03.923Z,13.48
2022-09-06T03:43:34.459Z,13.50
2022-09-06T03:44:05.015Z,13.50
2022-09-06T03:44:35.538Z,13.48
2022-09-06T03:45:06.128Z,13.48
2022-09-06T03:45:36.726Z,13.48
2022-09-06T03:46:07.420Z,13.47
2022-09-06T03:46:38.006Z,13.46
2022-09-06T03:47:08.540Z,13.46
2022-09-06T03:47:39.124Z,13.47
2022-09-06T03:48:09.676Z,13.46
2022-09-06T03:48:40.266Z,13.44
2022-09-06T03:49:10.828Z,13.43
2022-09-06T03:49:41.374Z,13.44
2022-09-06T03:50:11.938Z,13.43
2022-09-06T03:50:42.510Z,13.41
2022-09-06T03:51:13.083Z,13.41
2022-09-06T03:51:43.649Z,13.41
2022-09-06T03:52:14.224Z,13.43
2022-09-06T03:52:44.812Z,13.43
2022-09-06T03:53:15.403Z,13.43
2022-09-06T03:53:45.926Z,13.44
2022-09-06T03:54:16.497Z,13.44
2022-09-06T03:54:47.053Z,13.44
2022-09-06T03:55:17.631Z,13.43
2022-09-06T03:55:48.192Z,13.44
2022-09-06T03:56:18.769Z,13.43
2022-09-06T03:56:49.339Z,13.43
2022-09-06T03:57:19.910Z,13.44
2022-09-06T03:57:50.478Z,13.44
2022-09-06T03:58:21.141Z,13.46
2022-09-06T03:58:51.712Z,13.47
2022-09-06T03:59:22.285Z,13.46
2022-09-06T03:59:52.844Z,13.46
2022-09-06T04:00:23.411Z,13.44
2022-09-06T04:00:54.026Z,13.46
2022-09-06T04:01:24.802Z,13.44
2022-09-06T04:01:55.397Z,13.44
2022-09-06T04:02:26.010Z,13.43
2022-09-06T04:02:59.743Z,13.44
2022-09-06T04:03:27.393Z,13.39
2022-09-06T04:03:57.943Z,13.38
2022-09-06T04:04:28.471Z,13.38
2022-09-06T04:04:59.041Z,13.38
2022-09-06T04:05:29.618Z,13.36
2022-09-06T04:06:00.192Z,13.36
2022-09-06T04:06:30.755Z,13.35
2022-09-06T04:07:01.312Z,13.35
2022-09-06T04:07:31.885Z,13.35
2022-09-06T04:08:02.457Z,13.32
2022-09-06T04:08:33.025Z,13.32
2022-09-06T04:09:03.609Z,13.32
2022-09-06T04:09:34.158Z,13.35
2022-09-06T04:10:04.681Z,13.32
2022-09-06T04:10:35.230Z,13.32
2022-09-06T04:11:05.770Z,13.32
2022-09-06T04:11:36.302Z,13.32
2022-09-06T04:12:06.855Z,13.31
2022-09-06T04:12:37.387Z,13.29
2022-09-06T04:13:07.940Z,13.29
2022-09-06T04:13:38.504Z,13.27
2022-09-06T04:14:09.052Z,13.24
2022-09-06T04:14:39.561Z,13.21
2022-09-06T04:15:10.582Z,13.19
2022-09-06T04:15:41.616Z,13.17
2022-09-06T04:16:12.186Z,13.14
2022-09-06T04:16:42.813Z,13.13
2022-09-06T04:17:13.309Z,13.10
2022-09-06T04:17:44.394Z,13.09
2022-09-06T04:18:14.935Z,13.10
2022-09-06T04:18:45.482Z,13.07
2022-09-06T04:19:16.039Z,13.07
2022-09-06T04:19:46.535Z,13.09
2022-09-06T04:20:17.558Z,13.09
2022-09-06T04:20:48.079Z,13.10
2022-09-06T04:21:19.086Z,13.09
2022-09-06T04:21:50.162Z,13.10
2022-09-06T04:22:20.684Z,13.12
2022-09-06T04:22:51.683Z,13.10
2022-09-06T04:23:22.703Z,13.12
2022-09-06T04:23:53.752Z,13.12
2022-09-06T04:24:24.754Z,13.14
2022-09-06T04:24:55.278Z,13.13
2022-09-06T04:25:25.812Z,13.14
2022-09-06T04:25:56.334Z,13.14
2022-09-06T04:26:27.440Z,13.13
2022-09-06T04:26:57.917Z,13.14
2022-09-06T04:27:28.945Z,13.16
2022-09-06T04:27:59.982Z,13.14
2022-09-06T04:28:31.012Z,13.12
2022-09-06T04:29:02.062Z,13.13
2022-09-06T04:29:32.574Z,13.13
2022-09-06T04:30:03.601Z,13.14
2022-09-06T04:30:34.609Z,13.13
2022-09-06T04:31:05.632Z,13.12
2022-09-06T04:31:36.730Z,13.10
2022-09-06T04:32:07.374Z,13.09
2022-09-06T04:32:37.881Z,13.09
2022-09-06T04:33:08.912Z,13.10
2022-09-06T04:33:39.913Z,13.09
2022-09-06T04:34:10.924Z,13.10
2022-09-06T04:34:41.471Z,13.09
2022-09-06T04:35:12.000Z,13.09
2022-09-06T04:35:43.025Z,13.09
2022-09-06T04:36:14.064Z,13.06
2022-09-06T04:36:48.340Z,13.07
2022-09-06T04:37:15.930Z,13.06
2022-09-06T04:37:46.942Z,13.04
2022-09-06T04:38:17.464Z,13.03
2022-09-06T04:38:48.531Z,13.01
2022-09-06T04:39:19.039Z,13.01
2022-09-06T04:39:50.118Z,13.04
2022-09-06T04:40:20.637Z,13.03
2022-09-06T04:40:51.635Z,12.99
2022-09-06T04:41:22.652Z,12.99
2022-09-06T04:41:53.672Z,13.01
2022-09-06T04:42:24.705Z,13.01
2022-09-06T04:42:55.704Z,12.99
2022-09-06T04:43:26.717Z,13.03
2022-09-06T04:43:57.734Z,13.01
2022-09-06T04:44:28.255Z,13.01
2022-09-06T04:44:59.307Z,13.03
2022-09-06T04:45:29.872Z,13.03
2022-09-06T04:46:00.412Z,13.07
2022-09-06T04:46:30.926Z,13.07
2022-09-06T04:47:01.474Z,13.09
2022-09-06T04:47:32.505Z,13.09
2022-09-06T04:48:03.576Z,13.12
2022-09-06T04:48:34.074Z,13.13
2022-09-06T04:49:05.100Z,13.13
2022-09-06T04:49:36.135Z,13.16
2022-09-06T04:50:08.031Z,13.16
2022-09-06T04:50:38.039Z,13.16
2022-09-06T04:51:09.526Z,13.17
2022-09-06T04:51:39.525Z,13.19
2022-09-06T04:52:10.050Z,13.21
2022-09-06T04:52:40.591Z,13.19
2022-09-06T04:53:11.630Z,13.22
2022-09-06T04:53:42.638Z,13.19
2022-09-06T04:54:13.657Z,13.22
2022-09-06T04:54:44.173Z,13.24
2022-09-06T04:55:15.194Z,13.24
2022-09-06T04:55:45.728Z,13.25
2022-09-06T04:56:16.250Z,13.28
2022-09-06T04:56:47.283Z,13.31
2022-09-06T04:57:18.379Z,13.31
2022-09-06T04:57:51.228Z,13.32
2022-09-06T04:58:19.838Z,13.36
2022-09-06T04:58:50.368Z,13.38
2022-09-06T04:59:20.891Z,13.43
2022-09-06T04:59:51.437Z,13.44
2022-09-06T05:00:21.937Z,13.46
2022-09-06T05:00:52.973Z,13.47
2022-09-06T05:01:23.650Z,13.48
2022-09-06T05:01:54.219Z,13.48
2022-09-06T05:02:24.761Z,13.50
2022-09-06T05:02:55.350Z,13.51
2022-09-06T05:03:25.829Z,13.51
2022-09-06T05:03:57.307Z,13.53
2022-09-06T05:04:27.853Z,13.53
2022-09-06T05:04:58.387Z,13.55
2022-09-06T05:05:29.422Z,13.57
2022-09-06T05:06:00.444Z,13.57
2022-09-06T05:06:30.970Z,13.59
2022-09-06T05:07:01.989Z,13.62
2022-09-06T05:07:33.009Z,13.61
2022-09-06T05:08:04.003Z,13.66
2022-09-06T05:08:35.016Z,13.68
2022-09-06T05:09:06.053Z,13.69
2022-09-06T05:09:37.083Z,13.69
2022-09-06T05:10:07.608Z,13.69
2022-09-06T05:10:38.658Z,13.73
2022-09-06T05:11:09.662Z,13.72
2022-09-06T05:11:40.688Z,13.73
2022-09-06T05:12:11.711Z,13.75
2022-09-06T05:12:44.435Z,13.79
2022-09-06T05:13:12.923Z,13.79
2022-09-06T05:13:43.941Z,13.76
2022-09-06T05:14:14.955Z,13.79
2022-09-06T05:14:45.978Z,13.79
2022-09-06T05:15:16.977Z,13.76
2022-09-06T05:15:48.001Z,13.79
2022-09-06T05:16:18.627Z,13.76
2022-09-06T05:16:49.206Z,13.79
2022-09-06T05:17:19.740Z,13.79
2022-09-06T05:17:50.264Z,13.79
2022-09-06T05:18:20.783Z,13.80
2022-09-06T05:18:51.304Z,13.81
2022-09-06T05:19:21.825Z,13.80
2022-09-06T05:19:52.350Z,13.80
2022-09-06T05:20:23.354Z,13.81
2022-09-06T05:20:54.386Z,13.83
2022-09-06T05:21:25.420Z,13.81
2022-09-06T05:21:56.423Z,13.83
2022-09-06T05:22:27.456Z,13.83
2022-09-06T05:22:57.989Z,13.86
2022-09-06T05:23:28.517Z,13.90
2022-09-06T05:23:59.529Z,13.88
2022-09-06T05:24:30.535Z,13.90
2022-09-06T05:25:01.571Z,13.93
2022-09-06T05:25:32.093Z,13.94
2022-09-06T05:26:02.610Z,13.94
2022-09-06T05:26:33.667Z,13.94
2022-09-06T05:27:04.176Z,13.98
2022-09-06T05:27:34.698Z,13.98
2022-09-06T05:28:05.720Z,13.96
2022-09-06T05:28:36.730Z,13.98
2022-09-06T05:29:07.728Z,14.01
2022-09-06T05:29:38.258Z,14.02
2022-09-06T05:30:08.776Z,14.01
2022-09-06T05:30:39.784Z,14.01
2022-09-06T05:31:12.053Z,14.02
2022-09-06T05:31:41.675Z,14.04
2022-09-06T05:32:12.212Z,14.04
2022-09-06T05:32:42.732Z,14.05
2022-09-06T05:33:13.756Z,14.04
2022-09-06T05:33:44.765Z,14.08
2022-09-06T05:34:15.754Z,14.08
2022-09-06T05:34:46.780Z,14.12
2022-09-06T05:35:17.307Z,14.13
2022-09-06T05:35:48.339Z,14.16
2022-09-06T05:36:18.859Z,14.21
2022-09-06T05:36:49.383Z,14.24
2022-09-06T05:37:19.901Z,14.27
2022-09-06T05:37:50.897Z,14.30
2022-09-06T05:38:21.453Z,14.36
2022-09-06T05:38:51.974Z,14.39
2022-09-06T05:39:23.157Z,14.39
2022-09-06T05:39:53.748Z,14.41
2022-09-06T05:40:24.288Z,14.44
2022-09-06T05:40:55.275Z,14.46
2022-09-06T05:41:26.280Z,14.48
2022-09-06T05:41:57.303Z,14.52
2022-09-06T05:42:28.330Z,14.54
2022-09-06T05:42:59.339Z,14.59
2022-09-06T05:43:29.852Z,14.63
2022-09-06T05:44:00.883Z,14.66
2022-09-06T05:44:31.893Z,14.71
2022-09-06T05:45:02.920Z,14.75
2022-09-06T05:45:33.483Z,14.80
2022-09-06T05:46:04.062Z,14.83
2022-09-06T05:46:34.564Z,14.86
2022-09-06T05:47:05.069Z,14.91
2022-09-06T05:47:36.102Z,14.95
2022-09-06T05:48:07.125Z,14.98
2022-09-06T05:48:38.361Z,15.03
2022-09-06T05:49:08.974Z,15.05
2022-09-06T05:49:40.005Z,15.09
2022-09-06T05:50:10.545Z,15.12
2022-09-06T05:50:41.065Z,15.15
2022-09-06T05:51:11.588Z,15.18
2022-09-06T05:51:42.602Z,15.20
2022-09-06T05:52:13.627Z,15.22
2022-09-06T05:52:44.654Z,15.25
2022-09-06T05:53:15.163Z,15.27
2022-09-06T05:53:46.199Z,15.27
2022-09-06T05:54:16.708Z,15.30
2022-09-06T05:54:47.732Z,15.31
2022-09-06T05:55:18.749Z,15.31
2022-09-06T05:55:49.286Z,15.33
2022-09-06T05:56:19.805Z,15.34
2022-09-06T05:56:50.845Z,15.35
2022-09-06T05:57:21.378Z,15.35
2022-09-06T05:57:52.390Z,15.35
2022-09-06T05:58:22.969Z,15.37
2022-09-06T05:58:53.509Z,15.37
2022-09-06T05:59:24.500Z,15.38
2022-09-06T05:59:55.029Z,15.37
2022-09-06T06:00:25.553Z,15.38
2022-09-06T06:00:56.664Z,15.38
2022-09-06T06:01:27.308Z,15.38
2022-09-06T06:01:57.869Z,15.38
2022-09-06T06:02:28.425Z,15.38
2022-09-06T06:02:58.943Z,15.37
2022-09-06T06:03:29.971Z,15.38
2022-09-06T06:04:00.523Z,15.40
2022-09-06T06:04:31.024Z,15.41
2022-09-06T06:05:02.034Z,15.41
2022-09-06T06:05:33.061Z,15.41
2022-09-06T06:06:03.596Z,15.43
2022-09-06T06:06:34.131Z,15.43
2022-09-06T06:07:04.658Z,15.43
2022-09-06T06:07:35.686Z,15.43
2022-09-06T06:08:06.207Z,15.41
2022-09-06T06:08:37.199Z,15.43
2022-09-06T06:09:08.275Z,15.43
2022-09-06T06:09:38.779Z,15.43
2022-09-06T06:10:09.404Z,15.43
2022-09-06T06:10:39.913Z,15.43
2022-09-06T06:11:10.930Z,15.43
2022-09-06T06:11:41.960Z,15.43
2022-09-06T06:12:12.974Z,15.44
2022-09-06T06:12:44.059Z,15.43
2022-09-06T06:13:14.555Z,15.43
2022-09-06T06:13:45.562Z,15.44
2022-09-06T06:14:16.589Z,15.44
2022-09-06T06:14:47.603Z,15.46
2022-09-06T06:15:18.599Z,15.46
2022-09-06T06:15:49.592Z,15.44
2022-09-06T06:16:20.664Z,15.46
2022-09-06T06:16:51.322Z,15.46
2022-09-06T06:17:21.873Z,15.43
2022-09-06T06:17:52.415Z,15.44
2022-09-06T06:18:23.018Z,15.43
2022-09-06T06:18:53.537Z,15.43
2022-09-06T06:19:24.545Z,15.41
2022-09-06T06:19:55.075Z,15.43
2022-09-06T06:20:25.598Z,15.44
2022-09-06T06:20:56.619Z,15.43
2022-09-06T06:21:27.158Z,15.43
2022-09-06T06:21:57.685Z,15.40
2022-09-06T06:22:28.694Z,15.41
2022-09-06T06:22:59.707Z,15.41
2022-09-06T06:23:30.746Z,15.41
2022-09-06T06:24:01.265Z,15.40
2022-09-06T06:24:32.334Z,15.40
2022-09-06T06:25:02.826Z,15.41
2022-09-06T06:25:33.839Z,15.38
2022-09-06T06:26:04.844Z,15.37
2022-09-06T06:26:35.854Z,15.38
2022-09-06T06:27:06.374Z,15.35
2022-09-06T06:27:36.910Z,15.34
2022-09-06T06:28:07.939Z,15.31
2022-09-06T06:28:38.437Z,15.30
2022-09-06T06:29:09.455Z,15.31
2022-09-06T06:29:40.466Z,15.31
2022-09-06T06:30:15.208Z,15.28
2022-09-06T06:30:42.243Z,15.23
2022-09-06T06:31:12.824Z,15.20
2022-09-06T06:31:43.452Z,15.19
2022-09-06T06:32:13.958Z,15.19
2022-09-06T06:32:44.992Z,15.20
2022-09-06T06:33:15.493Z,15.19
2022-09-06T06:33:46.573Z,15.18
2022-09-06T06:34:17.077Z,15.16
2022-09-06T06:34:48.135Z,15.19